Terminal Aerodrome Forecast
Issued by NWS

Home | Current Version | Previous Version | Text Only | Print | Product List | Glossary On
Versions: 1 2 3 4 5 6 7 8 9 10 11 12 13
000
FTUS42 TJSJ 301900 AAA
TAFJBQ
TAF AMD
TJBQ 301950Z 3020/3118 06012KT P6SM VCTS FEW025CB BKN050
      TEMPO 3020/3022 VRB12G20KT 4SM TSRA BKN025CB BKN040
     FM302350 10006KT P6SM SCT025 SCT050
     FM311400 08013KT P6SM SCT025=

USA.gov is the U.S. government's official web portal to all federal, state and local government web resources and services.